Нижний Енангск

Карта отелей и гостиниц, располагающихся рядом с аэропортом Нижний Енангск :

Нижний Енангск Вологодская область 59° 59' 1.68" N, 46° 19' 37.272" E
Код аэродрома ИКАО
ZE9B
Код аэродрома RU
ЗЕ9Б
Координаты
N59.98380° E046.32702°
Превышение над уровнем моря
98
Основная полоса
06/24
Курс магнитный
059,4/239,4
Длина основной ВПП
600
Ширина основной ВПП
60
Покрытие основной ВПП
Нетвёрдое (грунт)
Освещение ВПП
Нет
Тип: 
Аэродром
Класс аэродрома: 
Принадлежность: 
ГА
Статус: 
Недействующий
Сайт: 
E-mail аэродрома: 
Страна: 
Россия
Регион: 
Вологодская область
Город: 
Дополнительная информация: 
Летное поле аэродрома МВЛ-2.

Найти трансфер

С помощью этой формы Вы можете найти трансфер из аэропорта Нижний Енангск в город, аэропорт или вокзал:

Карта места

Javascript is required to view this map.

Погода в аэропортах:

Авиационная погода в Синопе

Регион: 
Погода METAR: 
LTCM 241650Z 32008KT 210V360 7000 -SHRA SCT015 BKN025 BKN070 13/11 Q1026
Время наблюдения
2021-10-24T16:50:00Z
Температура C
13.0
Точка росы
11.0
Направление ветра
320
Скорость ветра (узлы)
8
Метео видимость
4.35
Явления погоды
-SHRA
Условия полета
MVFR

Авиационная погода в Чимкенте

Регион: 
Погода METAR: 
UAII 241500Z 00000MPS 5000 FU NSC 11/02 Q1017 R28/0///70 NOSIG RMK QFE726/0968
Время наблюдения
2021-10-24T15:00:00Z
Температура C
11.0
Точка росы
2.0
Направление ветра
0
Скорость ветра (узлы)
0
Метео видимость
3.11
Явления погоды
FU
Условия полета
MVFR
Аэропорт подробнее: 

Авиационная погода в Нижнем Новгороде

Регион: 
Погода METAR: 
UWGG 241700Z 31006MPS 9999 -SHRA OVC010CB 02/01 Q1011 R36R/290050 NOSIG
Время наблюдения
2021-10-24T17:00:00Z
Температура C
2.0
Точка росы
1.0
Направление ветра
310
Скорость ветра (узлы)
12
Метео видимость
6.21
Явления погоды
-SHRA
Условия полета
MVFR
Аэропорт подробнее: 

Авиационная погода в Москва - Внуково

Погода METAR: 
UUWW 241700Z 33006MPS 9000 -SHSN BKN031CB 01/M04 Q1022 RMK WS R24 R24/290050 TEMPO 1500 SHSN BKN012CB
Время наблюдения
2021-10-24T17:00:00Z
Температура C
1.0
Точка росы
-4.0
Направление ветра
330
Скорость ветра (узлы)
12
Метео видимость
5.59
Явления погоды
-SHSN
Условия полета
VFR
Аэропорт подробнее: